sensor_id;sensor_type;location;lat;lon;timestamp;pressure;altitude;pressure_sealevel;temperature;humidity
47366;BME280;33105;47.964;7.982;2023-04-23T00:01:45;96221.03;;;11.99;77.42
47366;BME280;33105;47.964;7.982;2023-04-23T00:04:50;96224.38;;;11.91;78.50
47366;BME280;33105;47.964;7.982;2023-04-23T00:07:53;96220.78;;;11.96;78.25
47366;BME280;33105;47.964;7.982;2023-04-23T00:10:54;96228.28;;;11.80;79.46
47366;BME280;33105;47.964;7.982;2023-04-23T00:13:56;96230.19;;;11.79;79.64
47366;BME280;33105;47.964;7.982;2023-04-23T00:16:57;96228.09;;;12.10;79.64
47366;BME280;33105;47.964;7.982;2023-04-23T00:19:59;96220.63;;;11.77;80.69
47366;BME280;33105;47.964;7.982;2023-04-23T00:23:00;96220.53;;;11.92;79.00
47366;BME280;33105;47.964;7.982;2023-04-23T00:26:01;96226.34;;;11.80;79.90
47366;BME280;33105;47.964;7.982;2023-04-23T00:29:03;96231.59;;;11.67;81.17
47366;BME280;33105;47.964;7.982;2023-04-23T00:32:05;96231.03;;;11.70;81.26
47366;BME280;33105;47.964;7.982;2023-04-23T00:35:07;96228.56;;;11.68;77.94
47366;BME280;33105;47.964;7.982;2023-04-23T00:38:09;96211.84;;;11.80;77.47
47366;BME280;33105;47.964;7.982;2023-04-23T00:41:11;96238.78;;;11.52;77.88
47366;BME280;33105;47.964;7.982;2023-04-23T00:44:13;96229.50;;;11.48;77.90
47366;BME280;33105;47.964;7.982;2023-04-23T00:47:15;96229.94;;;11.66;76.85
47366;BME280;33105;47.964;7.982;2023-04-23T00:50:16;96232.63;;;11.76;76.98
47366;BME280;33105;47.964;7.982;2023-04-23T00:53:19;96239.53;;;11.63;77.40
47366;BME280;33105;47.964;7.982;2023-04-23T00:56:21;96238.69;;;11.73;74.91
47366;BME280;33105;47.964;7.982;2023-04-23T00:59:24;96248.94;;;11.42;77.29
47366;BME280;33105;47.964;7.982;2023-04-23T01:02:29;96240.44;;;11.43;77.17
47366;BME280;33105;47.964;7.982;2023-04-23T01:05:31;96245.72;;;11.30;76.93
47366;BME280;33105;47.964;7.982;2023-04-23T01:08:33;96245.66;;;11.40;77.02
47366;BME280;33105;47.964;7.982;2023-04-23T01:11:41;96245.41;;;11.36;77.16
47366;BME280;33105;47.964;7.982;2023-04-23T01:14:43;96247.97;;;11.12;79.24
47366;BME280;33105;47.964;7.982;2023-04-23T01:17:46;96250.66;;;11.22;78.40
47366;BME280;33105;47.964;7.982;2023-04-23T01:20:47;96250.94;;;11.16;80.09
47366;BME280;33105;47.964;7.982;2023-04-23T01:23:49;96246.88;;;11.13;80.72
47366;BME280;33105;47.964;7.982;2023-04-23T01:26:51;96249.63;;;11.08;81.09
47366;BME280;33105;47.964;7.982;2023-04-23T01:29:53;96255.38;;;10.97;82.13
47366;BME280;33105;47.964;7.982;2023-04-23T01:32:55;96243.59;;;11.06;82.15
47366;BME280;33105;47.964;7.982;2023-04-23T01:35:58;96253.16;;;11.04;83.64
47366;BME280;33105;47.964;7.982;2023-04-23T01:39:00;96244.97;;;10.94;84.92
47366;BME280;33105;47.964;7.982;2023-04-23T01:42:04;96241.16;;;10.89;84.98
47366;BME280;33105;47.964;7.982;2023-04-23T01:45:07;96239.50;;;10.99;84.52
47366;BME280;33105;47.964;7.982;2023-04-23T01:48:09;96231.63;;;10.67;85.64
47366;BME280;33105;47.964;7.982;2023-04-23T01:51:11;96233.81;;;10.75;85.92
47366;BME280;33105;47.964;7.982;2023-04-23T01:54:12;96236.28;;;10.76;87.03
47366;BME280;33105;47.964;7.982;2023-04-23T01:57:13;96248.56;;;10.69;86.74
47366;BME280;33105;47.964;7.982;2023-04-23T02:00:16;96234.66;;;10.55;87.08
47366;BME280;33105;47.964;7.982;2023-04-23T02:03:19;96235.50;;;10.55;87.34
47366;BME280;33105;47.964;7.982;2023-04-23T02:06:20;96232.22;;;10.59;87.81
47366;BME280;33105;47.964;7.982;2023-04-23T02:09:21;96230.56;;;10.52;88.04
47366;BME280;33105;47.964;7.982;2023-04-23T02:12:23;96225.63;;;10.70;87.27
47366;BME280;33105;47.964;7.982;2023-04-23T02:15:25;96222.38;;;10.47;87.86
47366;BME280;33105;47.964;7.982;2023-04-23T02:18:26;96228.63;;;10.68;87.72
47366;BME280;33105;47.964;7.982;2023-04-23T02:21:28;96228.66;;;10.43;88.55
47366;BME280;33105;47.964;7.982;2023-04-23T02:24:30;96227.31;;;10.30;89.66
47366;BME280;33105;47.964;7.982;2023-04-23T02:27:32;96231.94;;;10.35;89.92
47366;BME280;33105;47.964;7.982;2023-04-23T02:30:34;96227.59;;;10.39;89.79
47366;BME280;33105;47.964;7.982;2023-04-23T02:33:35;96231.66;;;10.21;89.85
47366;BME280;33105;47.964;7.982;2023-04-23T02:36:37;96224.25;;;10.16;90.54
47366;BME280;33105;47.964;7.982;2023-04-23T02:39:39;96222.94;;;10.29;90.59
47366;BME280;33105;47.964;7.982;2023-04-23T02:42:41;96211.44;;;10.12;90.20
47366;BME280;33105;47.964;7.982;2023-04-23T02:45:42;96212.81;;;10.40;89.72
47366;BME280;33105;47.964;7.982;2023-04-23T02:48:45;96223.75;;;10.35;90.07
47366;BME280;33105;47.964;7.982;2023-04-23T02:51:46;96215.03;;;10.33;90.15
47366;BME280;33105;47.964;7.982;2023-04-23T02:54:48;96214.75;;;10.34;89.80
47366;BME280;33105;47.964;7.982;2023-04-23T03:01:23;96220.47;;;10.22;90.50
47366;BME280;33105;47.964;7.982;2023-04-23T03:04:24;96218.00;;;10.21;90.77
47366;BME280;33105;47.964;7.982;2023-04-23T03:07:26;96214.19;;;10.22;89.45
47366;BME280;33105;47.964;7.982;2023-04-23T03:10:27;96223.19;;;10.12;90.51
47366;BME280;33105;47.964;7.982;2023-04-23T03:13:28;96219.31;;;9.98;91.08
47366;BME280;33105;47.964;7.982;2023-04-23T03:16:30;96228.59;;;9.97;91.34
47366;BME280;33105;47.964;7.982;2023-04-23T03:19:32;96226.44;;;10.09;91.48
47366;BME280;33105;47.964;7.982;2023-04-23T03:22:34;96225.91;;;10.12;90.93
47366;BME280;33105;47.964;7.982;2023-04-23T03:25:36;96229.44;;;10.08;91.45
47366;BME280;33105;47.964;7.982;2023-04-23T03:32:08;96225.84;;;9.77;90.60
47366;BME280;33105;47.964;7.982;2023-04-23T03:35:09;96221.50;;;9.91;90.66
47366;BME280;33105;47.964;7.982;2023-04-23T03:38:12;96205.69;;;10.03;90.32
47366;BME280;33105;47.964;7.982;2023-04-23T03:41:15;96211.16;;;10.03;90.68
47366;BME280;33105;47.964;7.982;2023-04-23T03:44:17;96203.78;;;10.09;90.43
47366;BME280;33105;47.964;7.982;2023-04-23T03:47:20;96202.97;;;10.03;90.95
47366;BME280;33105;47.964;7.982;2023-04-23T03:50:21;96206.50;;;10.04;90.71
47366;BME280;33105;47.964;7.982;2023-04-23T03:53:34;96211.16;;;10.03;91.06
47366;BME280;33105;47.964;7.982;2023-04-23T03:56:53;96207.59;;;9.87;91.37
47366;BME280;33105;47.964;7.982;2023-04-23T04:00:03;96191.22;;;9.98;91.87
47366;BME280;33105;47.964;7.982;2023-04-23T04:03:14;96186.03;;;10.01;90.59
47366;BME280;33105;47.964;7.982;2023-04-23T04:06:15;96189.31;;;9.93;91.46
47366;BME280;33105;47.964;7.982;2023-04-23T04:09:17;96188.25;;;10.09;89.00
47366;BME280;33105;47.964;7.982;2023-04-23T04:12:18;96189.31;;;9.93;89.79
47366;BME280;33105;47.964;7.982;2023-04-23T04:15:19;96186.84;;;9.81;89.82
47366;BME280;33105;47.964;7.982;2023-04-23T04:18:21;96190.34;;;9.57;90.31
47366;BME280;33105;47.964;7.982;2023-04-23T04:21:22;96189.53;;;9.56;90.52
47366;BME280;33105;47.964;7.982;2023-04-23T04:24:23;96182.19;;;9.62;91.08
47366;BME280;33105;47.964;7.982;2023-04-23T04:27:25;96175.13;;;9.81;89.58
47366;BME280;33105;47.964;7.982;2023-04-23T04:30:27;96174.59;;;9.84;89.12
47366;BME280;33105;47.964;7.982;2023-04-23T04:33:28;96189.28;;;9.73;90.11
47366;BME280;33105;47.964;7.982;2023-04-23T04:36:29;96188.75;;;9.76;90.04
47366;BME280;33105;47.964;7.982;2023-04-23T04:39:31;96186.56;;;9.78;89.76
47366;BME280;33105;47.964;7.982;2023-04-23T04:42:33;96182.22;;;9.82;89.45
47366;BME280;33105;47.964;7.982;2023-04-23T04:45:34;96187.41;;;10.09;88.89
47366;BME280;33105;47.964;7.982;2023-04-23T04:48:35;96195.06;;;9.86;90.14
47366;BME280;33105;47.964;7.982;2023-04-23T04:51:38;96190.94;;;9.84;90.01
47366;BME280;33105;47.964;7.982;2023-04-23T04:54:40;96187.41;;;9.83;89.43
47366;BME280;33105;47.964;7.982;2023-04-23T04:57:41;96187.09;;;9.70;90.27
47366;BME280;33105;47.964;7.982;2023-04-23T05:00:42;96187.09;;;9.65;90.22
47366;BME280;33105;47.964;7.982;2023-04-23T05:03:44;96195.28;;;9.75;90.20
47366;BME280;33105;47.964;7.982;2023-04-23T05:06:45;96198.59;;;9.82;90.71
47366;BME280;33105;47.964;7.982;2023-04-23T05:09:47;96200.78;;;10.00;89.48
47366;BME280;33105;47.964;7.982;2023-04-23T05:12:48;96183.03;;;10.18;88.89
47366;BME280;33105;47.964;7.982;2023-04-23T05:15:51;96187.94;;;10.16;89.11
47366;BME280;33105;47.964;7.982;2023-04-23T05:18:53;96191.53;;;10.21;88.99
47366;BME280;33105;47.964;7.982;2023-04-23T05:21:54;96182.78;;;10.14;88.79
47366;BME280;33105;47.964;7.982;2023-04-23T05:24:56;96187.97;;;10.01;89.16
47366;BME280;33105;47.964;7.982;2023-04-23T05:27:58;96187.69;;;10.12;89.69
47366;BME280;33105;47.964;7.982;2023-04-23T05:30:59;96189.59;;;10.07;89.93
47366;BME280;33105;47.964;7.982;2023-04-23T05:34:00;96182.25;;;10.12;88.94
47366;BME280;33105;47.964;7.982;2023-04-23T05:37:02;96176.25;;;10.26;89.87
47366;BME280;33105;47.964;7.982;2023-04-23T05:40:03;96180.63;;;10.32;89.08
47366;BME280;33105;47.964;7.982;2023-04-23T05:43:06;96179.78;;;10.51;88.75
47366;BME280;33105;47.964;7.982;2023-04-23T05:46:08;96185.47;;;10.75;87.53
47366;BME280;33105;47.964;7.982;2023-04-23T05:49:09;96171.81;;;10.65;88.35
47366;BME280;33105;47.964;7.982;2023-04-23T05:52:10;96166.66;;;10.53;86.81
47366;BME280;33105;47.964;7.982;2023-04-23T05:55:12;96172.41;;;10.47;87.86
47366;BME280;33105;47.964;7.982;2023-04-23T05:58:15;96173.19;;;10.68;87.51
47366;BME280;33105;47.964;7.982;2023-04-23T06:01:18;96163.88;;;10.69;86.56
47366;BME280;33105;47.964;7.982;2023-04-23T06:04:20;96171.25;;;10.73;86.76
47366;BME280;33105;47.964;7.982;2023-04-23T06:07:21;96185.91;;;11.08;86.02
47366;BME280;33105;47.964;7.982;2023-04-23T06:10:22;96173.53;;;11.25;85.94
47366;BME280;33105;47.964;7.982;2023-04-23T06:13:23;96170.00;;;11.20;85.18
47366;BME280;33105;47.964;7.982;2023-04-23T06:16:25;96170.97;;;11.44;84.87
47366;BME280;33105;47.964;7.982;2023-04-23T06:19:26;96166.44;;;11.79;83.74
47366;BME280;33105;47.964;7.982;2023-04-23T06:22:27;96159.59;;;11.76;83.00
47366;BME280;33105;47.964;7.982;2023-04-23T06:25:29;96171.09;;;11.68;83.48
47366;BME280;33105;47.964;7.982;2023-04-23T06:28:30;96160.53;;;11.56;82.65
47366;BME280;33105;47.964;7.982;2023-04-23T06:32:01;96161.00;;;11.64;83.33
47366;BME280;33105;47.964;7.982;2023-04-23T06:35:02;96155.19;;;11.85;82.86
47366;BME280;33105;47.964;7.982;2023-04-23T06:38:04;96148.25;;;11.93;83.67
47366;BME280;33105;47.964;7.982;2023-04-23T06:41:06;96138.94;;;11.94;83.25
47366;BME280;33105;47.964;7.982;2023-04-23T06:44:07;96143.28;;;11.56;81.72
47366;BME280;33105;47.964;7.982;2023-04-23T06:47:15;96127.56;;;11.82;82.27
47366;BME280;33105;47.964;7.982;2023-04-23T06:50:16;96132.28;;;12.05;83.46
47366;BME280;33105;47.964;7.982;2023-04-23T06:53:17;96134.78;;;12.36;80.61
47366;BME280;33105;47.964;7.982;2023-04-23T06:56:19;96126.31;;;12.32;80.36
47366;BME280;33105;47.964;7.982;2023-04-23T06:59:21;96129.22;;;12.41;79.45
47366;BME280;33105;47.964;7.982;2023-04-23T07:02:27;96129.00;;;12.37;79.39
47366;BME280;33105;47.964;7.982;2023-04-23T07:05:28;96119.34;;;11.82;76.59
47366;BME280;33105;47.964;7.982;2023-04-23T07:08:29;96118.59;;;11.66;78.76
47366;BME280;33105;47.964;7.982;2023-04-23T07:11:30;96111.91;;;11.87;80.54
47366;BME280;33105;47.964;7.982;2023-04-23T07:14:34;96112.06;;;12.01;nan
47366;BME280;33105;47.964;7.982;2023-04-23T07:17:36;96103.19;;;12.14;79.18
47366;BME280;33105;47.964;7.982;2023-04-23T07:20:37;96101.91;;;12.07;77.98
47366;BME280;33105;47.964;7.982;2023-04-23T07:23:38;96104.81;;;12.15;76.87
47366;BME280;33105;47.964;7.982;2023-04-23T07:26:39;96094.19;;;12.38;73.65
47366;BME280;33105;47.964;7.982;2023-04-23T07:29:40;96100.84;;;12.32;73.09
47366;BME280;33105;47.964;7.982;2023-04-23T07:32:42;96094.19;;;12.38;74.66
47366;BME280;33105;47.964;7.982;2023-04-23T07:35:43;96079.25;;;12.54;71.63
47366;BME280;33105;47.964;7.982;2023-04-23T07:38:44;96074.91;;;12.48;72.06
47366;BME280;33105;47.964;7.982;2023-04-23T07:41:46;96072.94;;;12.77;72.03
47366;BME280;33105;47.964;7.982;2023-04-23T07:44:47;96071.84;;;12.78;71.53
47366;BME280;33105;47.964;7.982;2023-04-23T07:47:49;96072.66;;;12.79;71.55
47366;BME280;33105;47.964;7.982;2023-04-23T07:50:50;96071.06;;;13.58;71.08
47366;BME280;33105;47.964;7.982;2023-04-23T07:53:52;96067.41;;;13.25;69.45
47366;BME280;33105;47.964;7.982;2023-04-23T07:56:54;96077.28;;;13.26;69.08
47366;BME280;33105;47.964;7.982;2023-04-23T07:59:57;96077.34;;;13.40;68.35
47366;BME280;33105;47.964;7.982;2023-04-23T08:02:58;96068.00;;;13.78;67.53
47366;BME280;33105;47.964;7.982;2023-04-23T08:06:01;96068.25;;;13.95;70.76
47366;BME280;33105;47.964;7.982;2023-04-23T08:09:12;96064.91;;;13.99;68.00
47366;BME280;33105;47.964;7.982;2023-04-23T08:12:13;96060.06;;;14.09;65.99
47366;BME280;33105;47.964;7.982;2023-04-23T08:15:17;96064.13;;;14.12;65.72
47366;BME280;33105;47.964;7.982;2023-04-23T08:18:19;96051.38;;;13.70;64.70
47366;BME280;33105;47.964;7.982;2023-04-23T08:21:20;96051.97;;;13.67;65.54
47366;BME280;33105;47.964;7.982;2023-04-23T08:24:22;96043.75;;;13.99;65.09
47366;BME280;33105;47.964;7.982;2023-04-23T08:27:23;96046.22;;;14.14;67.06
47366;BME280;33105;47.964;7.982;2023-04-23T08:30:25;96043.72;;;14.32;63.39
47366;BME280;33105;47.964;7.982;2023-04-23T08:33:26;96030.94;;;14.68;62.36
47366;BME280;33105;47.964;7.982;2023-04-23T08:36:27;96033.09;;;14.57;61.99
47366;BME280;33105;47.964;7.982;2023-04-23T08:39:29;96025.34;;;14.73;61.76
47366;BME280;33105;47.964;7.982;2023-04-23T08:45:48;96023.47;;;14.27;63.97
47366;BME280;33105;47.964;7.982;2023-04-23T08:48:51;96015.38;;;14.50;63.05
47366;BME280;33105;47.964;7.982;2023-04-23T08:51:53;96016.59;;;14.44;61.96
47366;BME280;33105;47.964;7.982;2023-04-23T08:54:59;96009.44;;;14.97;62.75
47366;BME280;33105;47.964;7.982;2023-04-23T08:58:01;96001.09;;;15.03;60.85
47366;BME280;33105;47.964;7.982;2023-04-23T09:01:06;96001.91;;;14.89;59.49
47366;BME280;33105;47.964;7.982;2023-04-23T09:04:07;95991.56;;;15.45;58.99
47366;BME280;33105;47.964;7.982;2023-04-23T09:07:11;95984.31;;;15.49;58.89
47366;BME280;33105;47.964;7.982;2023-04-23T09:10:13;95976.91;;;15.13;60.82
47366;BME280;33105;47.964;7.982;2023-04-23T09:13:15;95979.88;;;15.03;60.83
47366;BME280;33105;47.964;7.982;2023-04-23T09:16:16;95973.50;;;15.30;60.53
47366;BME280;33105;47.964;7.982;2023-04-23T09:19:17;95991.13;;;14.79;59.75
47366;BME280;33105;47.964;7.982;2023-04-23T09:25:44;95972.16;;;14.91;59.72
47366;BME280;33105;47.964;7.982;2023-04-23T09:28:48;95968.56;;;15.05;60.42
47366;BME280;33105;47.964;7.982;2023-04-23T09:31:53;95958.41;;;15.27;59.73
47366;BME280;33105;47.964;7.982;2023-04-23T09:34:55;95951.72;;;15.42;59.51
47366;BME280;33105;47.964;7.982;2023-04-23T09:37:56;95958.25;;;15.46;57.93
47366;BME280;33105;47.964;7.982;2023-04-23T09:40:58;95943.81;;;15.63;57.30
47366;BME280;33105;47.964;7.982;2023-04-23T09:43:59;95949.13;;;15.82;57.90
47366;BME280;33105;47.964;7.982;2023-04-23T09:47:07;95955.16;;;16.23;56.16
47366;BME280;33105;47.964;7.982;2023-04-23T09:50:14;95944.63;;;15.63;57.73
47366;BME280;33105;47.964;7.982;2023-04-23T09:53:17;95934.44;;;15.95;58.73
47366;BME280;33105;47.964;7.982;2023-04-23T09:56:19;95936.06;;;16.27;57.54
47366;BME280;33105;47.964;7.982;2023-04-23T09:59:28;95939.75;;;16.22;56.80
47366;BME280;33105;47.964;7.982;2023-04-23T10:02:30;95937.56;;;16.02;56.39
47366;BME280;33105;47.964;7.982;2023-04-23T10:05:38;95930.22;;;16.28;57.64
47366;BME280;33105;47.964;7.982;2023-04-23T10:08:41;95937.97;;;15.64;55.43
47366;BME280;33105;47.964;7.982;2023-04-23T10:11:44;95924.34;;;16.21;57.20
47366;BME280;33105;47.964;7.982;2023-04-23T10:14:45;95921.97;;;16.28;57.65
47366;BME280;33105;47.964;7.982;2023-04-23T10:17:49;95915.91;;;16.18;57.37
47366;BME280;33105;47.964;7.982;2023-04-23T10:20:51;95915.28;;;16.21;58.08
47366;BME280;33105;47.964;7.982;2023-04-23T10:23:53;95922.41;;;16.22;58.39
47366;BME280;33105;47.964;7.982;2023-04-23T10:26:57;95908.94;;;16.20;56.75
47366;BME280;33105;47.964;7.982;2023-04-23T10:29:59;95913.66;;;15.89;58.82
47366;BME280;33105;47.964;7.982;2023-04-23T10:33:01;95906.00;;;16.08;58.83
47366;BME280;33105;47.964;7.982;2023-04-23T10:36:03;95895.19;;;16.20;56.52
47366;BME280;33105;47.964;7.982;2023-04-23T10:39:05;95900.81;;;16.15;56.18
47366;BME280;33105;47.964;7.982;2023-04-23T10:42:08;95903.56;;;16.15;58.14
47366;BME280;33105;47.964;7.982;2023-04-23T10:45:15;95896.16;;;16.24;55.97
47366;BME280;33105;47.964;7.982;2023-04-23T10:48:16;95894.44;;;16.46;54.50
47366;BME280;33105;47.964;7.982;2023-04-23T10:51:18;95894.47;;;16.54;57.33
47366;BME280;33105;47.964;7.982;2023-04-23T10:54:19;95892.81;;;16.45;57.13
47366;BME280;33105;47.964;7.982;2023-04-23T10:57:20;95872.88;;;16.48;56.48
47366;BME280;33105;47.964;7.982;2023-04-23T11:00:21;95872.22;;;16.42;55.81
47366;BME280;33105;47.964;7.982;2023-04-23T11:03:39;95870.22;;;16.99;56.55
47366;BME280;33105;47.964;7.982;2023-04-23T11:09:49;95870.69;;;16.76;55.82
47366;BME280;33105;47.964;7.982;2023-04-23T11:12:54;95862.91;;;16.95;55.10
47366;BME280;33105;47.964;7.982;2023-04-23T11:16:19;95861.13;;;16.73;56.17
47366;BME280;33105;47.964;7.982;2023-04-23T11:19:21;95847.91;;;16.53;56.30
47366;BME280;33105;47.964;7.982;2023-04-23T11:22:22;95839.69;;;16.70;55.73
47366;BME280;33105;47.964;7.982;2023-04-23T11:25:25;95838.84;;;16.52;54.03
47366;BME280;33105;47.964;7.982;2023-04-23T11:28:28;95844.59;;;16.82;56.26
47366;BME280;33105;47.964;7.982;2023-04-23T11:31:31;95834.31;;;17.17;55.93
47366;BME280;33105;47.964;7.982;2023-04-23T11:34:32;95834.66;;;17.15;54.07
47366;BME280;33105;47.964;7.982;2023-04-23T11:37:41;95834.81;;;16.84;55.12
47366;BME280;33105;47.964;7.982;2023-04-23T11:40:45;95838.88;;;16.70;55.52
47366;BME280;33105;47.964;7.982;2023-04-23T11:43:48;95823.31;;;16.91;56.20
47366;BME280;33105;47.964;7.982;2023-04-23T11:46:49;95817.16;;;17.03;54.60
47366;BME280;33105;47.964;7.982;2023-04-23T11:49:51;95810.81;;;17.02;54.25
47366;BME280;33105;47.964;7.982;2023-04-23T11:52:52;95805.28;;;17.11;56.13
47366;BME280;33105;47.964;7.982;2023-04-23T11:55:54;95803.16;;;17.08;55.85
47366;BME280;33105;47.964;7.982;2023-04-23T11:58:59;95797.63;;;17.16;55.10
47366;BME280;33105;47.964;7.982;2023-04-23T12:02:01;95786.59;;;17.25;53.08
47366;BME280;33105;47.964;7.982;2023-04-23T12:05:04;95785.13;;;17.27;54.05
47366;BME280;33105;47.964;7.982;2023-04-23T12:08:08;95788.47;;;17.50;51.98
47366;BME280;33105;47.964;7.982;2023-04-23T12:11:10;95771.50;;;17.78;53.99
47366;BME280;33105;47.964;7.982;2023-04-23T12:14:13;95763.88;;;17.75;53.53
47366;BME280;33105;47.964;7.982;2023-04-23T12:17:14;95768.25;;;17.12;51.63
47366;BME280;33105;47.964;7.982;2023-04-23T12:20:19;95760.50;;;16.88;53.24
47366;BME280;33105;47.964;7.982;2023-04-23T12:23:27;95764.84;;;17.15;54.00
47366;BME280;33105;47.964;7.982;2023-04-23T12:26:28;95766.16;;;17.09;52.75
47366;BME280;33105;47.964;7.982;2023-04-23T12:29:31;95765.47;;;17.29;52.84
47366;BME280;33105;47.964;7.982;2023-04-23T12:32:32;95770.69;;;17.22;53.74
47366;BME280;33105;47.964;7.982;2023-04-23T12:38:38;95752.97;;;17.78;53.04
47366;BME280;33105;47.964;7.982;2023-04-23T12:41:39;95752.16;;;18.07;51.71
47366;BME280;33105;47.964;7.982;2023-04-23T12:44:40;95748.94;;;17.76;54.04
47366;BME280;33105;47.964;7.982;2023-04-23T12:47:42;95745.75;;;17.48;52.90
47366;BME280;33105;47.964;7.982;2023-04-23T12:50:47;95741.81;;;17.57;51.47
47366;BME280;33105;47.964;7.982;2023-04-23T12:53:48;95745.50;;;17.32;51.97
47366;BME280;33105;47.964;7.982;2023-04-23T12:56:49;95740.75;;;17.41;52.99
47366;BME280;33105;47.964;7.982;2023-04-23T12:59:51;95742.63;;;17.58;54.38
47366;BME280;33105;47.964;7.982;2023-04-23T13:02:53;95740.00;;;17.70;54.21
47366;BME280;33105;47.964;7.982;2023-04-23T13:05:55;95728.31;;;17.64;51.40
47366;BME280;33105;47.964;7.982;2023-04-23T13:08:56;95720.53;;;17.66;52.61
47366;BME280;33105;47.964;7.982;2023-04-23T13:11:57;95725.59;;;17.56;51.99
47366;BME280;33105;47.964;7.982;2023-04-23T13:14:59;95720.88;;;17.56;52.25
47366;BME280;33105;47.964;7.982;2023-04-23T13:18:01;95708.47;;;17.62;53.08
47366;BME280;33105;47.964;7.982;2023-04-23T13:21:02;95694.19;;;17.69;52.83
47366;BME280;33105;47.964;7.982;2023-04-23T13:24:03;95690.78;;;17.63;54.12
47366;BME280;33105;47.964;7.982;2023-04-23T13:27:04;95680.03;;;17.71;52.16
47366;BME280;33105;47.964;7.982;2023-04-23T13:30:06;95688.00;;;17.72;53.23
47366;BME280;33105;47.964;7.982;2023-04-23T13:33:07;95691.78;;;17.88;52.75
47366;BME280;33105;47.964;7.982;2023-04-23T13:36:08;95686.50;;;18.04;52.67
47366;BME280;33105;47.964;7.982;2023-04-23T13:39:09;95683.69;;;17.83;52.26
47366;BME280;33105;47.964;7.982;2023-04-23T13:42:13;95680.25;;;17.57;52.35
47366;BME280;33105;47.964;7.982;2023-04-23T13:45:15;95667.16;;;17.45;52.18
47366;BME280;33105;47.964;7.982;2023-04-23T13:48:16;95659.91;;;17.32;53.76
47366;BME280;33105;47.964;7.982;2023-04-23T13:51:18;95660.56;;;17.58;55.10
47366;BME280;33105;47.964;7.982;2023-04-23T13:54:19;95649.78;;;18.04;52.70
47366;BME280;33105;47.964;7.982;2023-04-23T13:57:20;95650.63;;;17.95;53.84
47366;BME280;33105;47.964;7.982;2023-04-23T14:00:23;95646.63;;;17.84;52.88
47366;BME280;33105;47.964;7.982;2023-04-23T14:03:25;95638.00;;;17.86;52.33
47366;BME280;33105;47.964;7.982;2023-04-23T14:06:26;95633.44;;;17.60;53.64
47366;BME280;33105;47.964;7.982;2023-04-23T14:09:27;95638.81;;;17.65;53.16
47366;BME280;33105;47.964;7.982;2023-04-23T14:12:29;95660.22;;;17.68;53.59
47366;BME280;33105;47.964;7.982;2023-04-23T14:15:31;95704.44;;;17.60;52.30
47366;BME280;33105;47.964;7.982;2023-04-23T14:18:32;95738.28;;;16.50;58.66
47366;BME280;33105;47.964;7.982;2023-04-23T14:21:33;95712.09;;;15.39;58.95
47366;BME280;33105;47.964;7.982;2023-04-23T14:24:44;95655.25;;;14.94;63.67
47366;BME280;33105;47.964;7.982;2023-04-23T14:27:49;95684.06;;;15.28;63.44
47366;BME280;33105;47.964;7.982;2023-04-23T14:30:55;95682.22;;;15.15;66.56
47366;BME280;33105;47.964;7.982;2023-04-23T14:33:56;95685.44;;;15.08;64.77
47366;BME280;33105;47.964;7.982;2023-04-23T14:37:00;95681.09;;;15.16;64.63
47366;BME280;33105;47.964;7.982;2023-04-23T14:40:01;95682.56;;;15.22;63.54
47366;BME280;33105;47.964;7.982;2023-04-23T14:43:03;95692.09;;;15.16;62.91
47366;BME280;33105;47.964;7.982;2023-04-23T14:46:04;95687.72;;;15.15;63.39
47366;BME280;33105;47.964;7.982;2023-04-23T14:49:05;95688.44;;;15.38;60.77
47366;BME280;33105;47.964;7.982;2023-04-23T14:52:06;95686.31;;;15.65;62.50
47366;BME280;33105;47.964;7.982;2023-04-23T14:55:09;95684.56;;;15.87;59.14
47366;BME280;33105;47.964;7.982;2023-04-23T14:58:10;95681.03;;;16.04;59.04
47366;BME280;33105;47.964;7.982;2023-04-23T15:01:11;95688.78;;;16.10;60.36
47366;BME280;33105;47.964;7.982;2023-04-23T15:04:12;95680.53;;;16.02;57.78
47366;BME280;33105;47.964;7.982;2023-04-23T15:07:13;95679.97;;;15.56;60.77
47366;BME280;33105;47.964;7.982;2023-04-23T15:10:14;95677.13;;;15.79;60.58
47366;BME280;33105;47.964;7.982;2023-04-23T15:16:36;95664.81;;;16.54;60.48
47366;BME280;33105;47.964;7.982;2023-04-23T15:19:37;95662.88;;;16.54;56.45
47366;BME280;33105;47.964;7.982;2023-04-23T15:22:39;95670.00;;;16.64;56.12
47366;BME280;33105;47.964;7.982;2023-04-23T15:25:40;95670.28;;;16.88;55.47
47366;BME280;33105;47.964;7.982;2023-04-23T15:28:42;95665.00;;;17.13;52.23
47366;BME280;33105;47.964;7.982;2023-04-23T15:31:43;95664.28;;;16.60;54.42
47366;BME280;33105;47.964;7.982;2023-04-23T15:34:45;95679.50;;;17.01;51.77
47366;BME280;33105;47.964;7.982;2023-04-23T15:37:46;95685.31;;;17.08;50.95
47366;BME280;33105;47.964;7.982;2023-04-23T15:40:47;95676.50;;;16.68;50.85
47366;BME280;33105;47.964;7.982;2023-04-23T15:43:49;95681.50;;;16.75;50.60
47366;BME280;33105;47.964;7.982;2023-04-23T15:46:53;95681.50;;;16.75;50.43
47366;BME280;33105;47.964;7.982;2023-04-23T15:49:54;95693.84;;;16.51;50.05
47366;BME280;33105;47.964;7.982;2023-04-23T15:52:55;95694.00;;;16.46;50.84
47366;BME280;33105;47.964;7.982;2023-04-23T15:55:58;95689.28;;;16.38;48.29
47366;BME280;33105;47.964;7.982;2023-04-23T15:59:00;95683.78;;;16.47;47.21
47366;BME280;33105;47.964;7.982;2023-04-23T16:02:02;95689.63;;;16.28;48.71
47366;BME280;33105;47.964;7.982;2023-04-23T16:05:04;95685.41;;;16.22;50.03
47366;BME280;33105;47.964;7.982;2023-04-23T16:08:05;95686.88;;;16.28;48.87
47366;BME280;33105;47.964;7.982;2023-04-23T16:11:06;95685.59;;;16.08;48.96
47366;BME280;33105;47.964;7.982;2023-04-23T16:14:08;95692.03;;;15.95;48.40
47366;BME280;33105;47.964;7.982;2023-04-23T16:17:10;95685.75;;;16.20;47.63
47366;BME280;33105;47.964;7.982;2023-04-23T16:20:11;95692.38;;;16.02;47.92
47366;BME280;33105;47.964;7.982;2023-04-23T16:23:12;95693.03;;;15.99;47.85
47366;BME280;33105;47.964;7.982;2023-04-23T16:26:14;95689.44;;;15.98;50.42
47366;BME280;33105;47.964;7.982;2023-04-23T16:29:15;95695.91;;;15.94;47.14